createdAt,value
2017-11-17T00:02:17.391Z,6.90
2017-11-17T00:04:44.336Z,6.80
2017-11-17T00:07:11.238Z,6.80
2017-11-17T00:09:38.147Z,6.80
2017-11-17T00:12:05.833Z,6.80
2017-11-17T00:14:32.734Z,6.80
2017-11-17T00:16:59.624Z,6.70
2017-11-17T00:19:26.537Z,6.70
2017-11-17T00:21:54.263Z,6.70
2017-11-17T00:24:21.144Z,6.60
2017-11-17T00:26:48.040Z,6.70
2017-11-17T00:29:15.910Z,6.70
2017-11-17T00:31:42.820Z,6.60
2017-11-17T00:34:09.725Z,6.60
2017-11-17T00:36:36.616Z,6.60
2017-11-17T00:39:03.536Z,6.50
2017-11-17T00:41:31.194Z,6.50
2017-11-17T00:43:58.867Z,6.40
2017-11-17T00:46:25.767Z,6.40
2017-11-17T00:48:52.685Z,6.40
2017-11-17T00:51:19.566Z,6.50
2017-11-17T00:53:46.484Z,6.50
2017-11-17T00:56:13.390Z,6.40
2017-11-17T00:58:40.284Z,6.30
2017-11-17T01:01:07.223Z,6.20
2017-11-17T01:03:34.128Z,6.20
2017-11-17T01:06:01.022Z,6.30
2017-11-17T01:08:27.919Z,6.30
2017-11-17T01:10:54.843Z,6.30
2017-11-17T01:13:22.495Z,6.20
2017-11-17T01:15:50.159Z,6.10
2017-11-17T01:18:17.823Z,6.10
2017-11-17T01:20:45.515Z,6.10
2017-11-17T01:23:12.417Z,6.30
2017-11-17T01:25:39.340Z,6.00
2017-11-17T01:28:06.231Z,6.00
2017-11-17T01:30:34.554Z,5.90
2017-11-17T01:33:01.435Z,5.80
2017-11-17T01:35:29.117Z,6.00
2017-11-17T01:37:56.008Z,6.10
2017-11-17T01:40:22.922Z,6.00
2017-11-17T01:42:49.811Z,6.00
2017-11-17T01:45:16.741Z,5.90
2017-11-17T01:47:43.771Z,5.90
2017-11-17T01:50:10.690Z,5.80
2017-11-17T01:52:37.572Z,5.80
2017-11-17T01:55:04.474Z,5.80
2017-11-17T01:57:31.375Z,5.70
2017-11-17T01:59:58.346Z,5.70
2017-11-17T02:02:25.651Z,5.70
2017-11-17T02:04:52.551Z,5.80
2017-11-17T02:07:20.980Z,5.80
2017-11-17T02:09:47.892Z,5.80
2017-11-17T02:12:14.784Z,5.80
2017-11-17T02:14:41.695Z,5.70
2017-11-17T02:17:09.415Z,5.60
2017-11-17T02:19:37.092Z,5.60
2017-11-17T02:22:04.118Z,5.40
2017-11-17T02:24:32.438Z,5.40
2017-11-17T02:26:59.367Z,5.40
2017-11-17T02:29:26.280Z,5.30
2017-11-17T02:31:53.957Z,5.40
2017-11-17T02:34:21.623Z,5.30
2017-11-17T02:36:48.507Z,5.40
2017-11-17T02:39:15.417Z,5.20
2017-11-17T02:41:42.304Z,5.20
2017-11-17T02:44:09.235Z,5.10
2017-11-17T02:46:36.151Z,5.10
2017-11-17T02:49:03.062Z,5.10
2017-11-17T02:51:29.963Z,5.10
2017-11-17T02:53:57.882Z,5.10
2017-11-17T02:56:25.570Z,5.00
2017-11-17T02:58:52.457Z,4.90
2017-11-17T03:01:19.364Z,5.00
2017-11-17T03:03:46.274Z,5.10
2017-11-17T03:06:13.956Z,4.90
2017-11-17T03:08:40.848Z,5.20
2017-11-17T03:11:07.779Z,4.90
2017-11-17T03:13:34.690Z,4.80
2017-11-17T03:16:01.591Z,4.70
2017-11-17T03:18:28.479Z,4.80
2017-11-17T03:20:55.399Z,4.80
2017-11-17T03:23:23.083Z,4.70
2017-11-17T03:25:49.980Z,4.80
2017-11-17T03:28:16.887Z,4.60
2017-11-17T03:30:43.797Z,4.60
2017-11-17T03:33:12.480Z,4.80
2017-11-17T03:35:40.141Z,4.70
2017-11-17T03:38:08.828Z,4.70
2017-11-17T03:40:36.492Z,4.70
2017-11-17T03:43:04.172Z,4.60
2017-11-17T03:45:31.063Z,4.60
2017-11-17T03:47:57.964Z,4.60
2017-11-17T03:50:24.872Z,4.60
2017-11-17T03:52:51.764Z,4.60
2017-11-17T03:55:18.659Z,4.50
2017-11-17T03:57:45.567Z,4.50
2017-11-17T04:00:13.069Z,4.40
2017-11-17T04:02:40.728Z,4.50
2017-11-17T04:05:07.631Z,4.50
2017-11-17T04:07:34.532Z,4.50
2017-11-17T04:10:02.199Z,4.40
2017-11-17T04:12:30.800Z,4.40
2017-11-17T04:14:57.699Z,4.40
2017-11-17T04:17:25.358Z,4.30
2017-11-17T04:19:53.241Z,4.20
2017-11-17T04:22:20.911Z,4.40
2017-11-17T04:24:47.799Z,4.30
2017-11-17T04:27:14.708Z,4.40
2017-11-17T04:29:41.600Z,4.30
2017-11-17T04:32:08.511Z,4.30
2017-11-17T04:34:35.404Z,4.30
2017-11-17T04:37:03.076Z,4.20
2017-11-17T04:39:30.736Z,4.20
2017-11-17T04:41:58.420Z,4.30
2017-11-17T04:44:25.336Z,4.30
2017-11-17T04:46:52.249Z,4.30
2017-11-17T04:49:20.091Z,4.20
2017-11-17T04:51:46.988Z,4.20
2017-11-17T04:54:14.810Z,4.20
2017-11-17T04:56:41.706Z,4.30
2017-11-17T04:59:09.375Z,4.10
2017-11-17T05:01:37.040Z,4.20
2017-11-17T05:04:04.795Z,4.20
2017-11-17T05:06:32.474Z,4.10
2017-11-17T05:08:59.423Z,4.10
2017-11-17T05:11:26.317Z,4.20
2017-11-17T05:13:53.228Z,4.20
2017-11-17T05:16:20.119Z,4.10
2017-11-17T05:18:47.061Z,4.10
2017-11-17T05:21:13.960Z,4.30
2017-11-17T05:23:40.939Z,4.20
2017-11-17T05:26:09.834Z,4.20
2017-11-17T05:28:36.739Z,4.20
2017-11-17T05:31:03.638Z,4.20
2017-11-17T05:33:31.302Z,4.20
2017-11-17T05:35:58.963Z,4.20
2017-11-17T05:38:26.633Z,4.30
2017-11-17T05:40:54.287Z,4.20
2017-11-17T05:43:21.954Z,4.20
2017-11-17T05:45:49.615Z,4.20
2017-11-17T05:48:17.286Z,4.20
2017-11-17T05:50:44.180Z,4.30
2017-11-17T05:53:12.101Z,4.20
2017-11-17T05:55:39.012Z,4.20
2017-11-17T05:58:05.933Z,4.10
2017-11-17T06:00:32.832Z,4.10
2017-11-17T06:02:59.733Z,4.10
2017-11-17T06:05:26.638Z,4.00
2017-11-17T06:07:53.547Z,4.10
2017-11-17T06:10:21.203Z,4.10
2017-11-17T06:12:48.883Z,4.10
2017-11-17T06:15:15.779Z,4.20
2017-11-17T06:17:43.823Z,4.10
2017-11-17T06:20:10.703Z,4.10
2017-11-17T06:22:37.627Z,4.10
2017-11-17T06:25:04.520Z,4.10
2017-11-17T06:27:32.209Z,4.10
2017-11-17T06:29:59.107Z,4.00
2017-11-17T06:32:26.012Z,4.10
2017-11-17T06:34:52.896Z,4.20
2017-11-17T06:37:19.807Z,4.20
2017-11-17T06:39:46.712Z,4.10
2017-11-17T06:42:14.540Z,4.20
2017-11-17T06:44:41.423Z,4.20
2017-11-17T06:47:08.327Z,4.10
2017-11-17T06:49:35.218Z,4.10
2017-11-17T06:52:02.125Z,4.20
2017-11-17T06:54:30.811Z,4.20
2017-11-17T06:56:57.716Z,4.10
2017-11-17T06:59:24.611Z,4.20
2017-11-17T07:01:53.296Z,4.30
2017-11-17T07:04:20.965Z,4.40
2017-11-17T07:06:48.815Z,4.40
2017-11-17T07:09:17.629Z,4.50
2017-11-17T07:11:44.539Z,4.50
2017-11-17T07:14:11.428Z,4.50
2017-11-17T07:16:39.255Z,4.50
2017-11-17T07:19:06.168Z,4.70
2017-11-17T07:21:34.067Z,4.70
2017-11-17T07:24:01.727Z,4.60
2017-11-17T07:26:28.639Z,4.60
2017-11-17T07:28:55.539Z,4.70
2017-11-17T07:31:23.382Z,4.70
2017-11-17T07:33:50.269Z,4.70
2017-11-17T07:36:17.186Z,4.80
2017-11-17T07:38:44.840Z,4.80
2017-11-17T07:41:12.536Z,4.90
2017-11-17T07:43:39.432Z,4.90
2017-11-17T07:46:07.303Z,4.90
2017-11-17T07:48:34.191Z,5.00
2017-11-17T07:51:01.999Z,5.00
2017-11-17T07:53:28.903Z,5.00
2017-11-17T07:55:55.834Z,5.10
2017-11-17T07:58:22.809Z,5.10
2017-11-17T08:00:49.724Z,5.10
2017-11-17T08:03:16.623Z,5.30
2017-11-17T08:05:44.511Z,5.30
2017-11-17T08:08:12.168Z,5.40
2017-11-17T08:10:39.855Z,5.50
2017-11-17T08:13:06.786Z,5.50
2017-11-17T08:15:35.356Z,5.50
2017-11-17T08:21:02.663Z,5.60
2017-11-17T08:23:29.574Z,5.60
2017-11-17T08:25:58.241Z,5.70
2017-11-17T08:28:25.179Z,5.80
2017-11-17T08:30:53.083Z,5.90
2017-11-17T08:33:20.022Z,5.90
2017-11-17T08:35:48.700Z,6.20
2017-11-17T08:38:17.310Z,6.30
2017-11-17T08:40:44.202Z,6.20
2017-11-17T08:43:11.131Z,6.40
2017-11-17T08:45:38.019Z,6.50
2017-11-17T08:48:05.705Z,6.60
2017-11-17T08:50:32.594Z,6.60
2017-11-17T08:53:00.254Z,6.80
2017-11-17T08:55:29.144Z,6.80
2017-11-17T08:57:57.034Z,6.80
2017-11-17T09:00:25.695Z,6.50
2017-11-17T09:02:53.593Z,6.50
2017-11-17T09:05:20.484Z,6.50
2017-11-17T09:07:47.416Z,6.50
2017-11-17T09:10:14.311Z,6.70
2017-11-17T09:12:41.202Z,6.90
2017-11-17T09:15:08.123Z,7.10
2017-11-17T09:17:35.782Z,7.20
2017-11-17T09:20:03.436Z,7.50
2017-11-17T09:22:31.107Z,7.80
2017-11-17T09:24:58.004Z,7.70
2017-11-17T09:27:25.183Z,7.90
2017-11-17T09:29:52.855Z,8.10
2017-11-17T09:32:19.778Z,8.10
2017-11-17T09:34:46.676Z,8.40
2017-11-17T09:37:13.588Z,8.50
2017-11-17T09:39:40.482Z,8.20
2017-11-17T09:42:07.392Z,8.10
2017-11-17T09:44:35.218Z,8.20
2017-11-17T09:47:02.132Z,8.40
2017-11-17T09:49:29.034Z,8.40
2017-11-17T09:51:55.952Z,8.40
2017-11-17T09:54:22.856Z,8.40
2017-11-17T09:56:50.808Z,8.40
2017-11-17T09:59:17.792Z,8.50
2017-11-17T10:01:45.497Z,8.70
2017-11-17T10:04:12.403Z,8.60
2017-11-17T10:06:39.313Z,8.70
2017-11-17T10:09:06.223Z,8.80
2017-11-17T10:11:33.572Z,8.70
2017-11-17T10:14:01.239Z,8.80
2017-11-17T10:16:28.908Z,8.80
2017-11-17T10:18:55.843Z,8.90
2017-11-17T10:21:22.765Z,8.90
2017-11-17T10:23:53.808Z,8.80
2017-11-17T10:26:20.724Z,8.80
2017-11-17T10:28:47.623Z,9.00
2017-11-17T10:31:14.540Z,9.00
2017-11-17T10:33:41.435Z,9.00
2017-11-17T10:36:08.430Z,9.00
2017-11-17T10:38:35.347Z,9.00
2017-11-17T10:41:02.756Z,9.20
2017-11-17T10:43:29.671Z,9.30
2017-11-17T10:45:56.586Z,9.40
2017-11-17T10:48:23.735Z,9.30
2017-11-17T10:50:51.477Z,9.10
2017-11-17T10:53:18.405Z,9.30
2017-11-17T10:55:45.323Z,9.40
2017-11-17T10:58:12.223Z,9.50
2017-11-17T11:00:39.187Z,9.90
2017-11-17T11:03:06.944Z,9.90
2017-11-17T11:05:33.847Z,9.50
2017-11-17T11:08:01.688Z,8.80
2017-11-17T11:10:29.353Z,7.90
2017-11-17T11:12:57.021Z,7.90
2017-11-17T11:15:25.595Z,7.90
2017-11-17T11:17:52.516Z,7.90
2017-11-17T11:20:19.430Z,7.80
2017-11-17T11:22:46.328Z,7.70
2017-11-17T11:25:14.002Z,7.90
2017-11-17T11:27:41.676Z,8.10
2017-11-17T11:30:08.564Z,8.10
2017-11-17T11:32:35.472Z,8.10
2017-11-17T11:35:02.368Z,8.20
2017-11-17T11:37:29.290Z,8.30
2017-11-17T11:39:56.184Z,8.40
2017-11-17T11:42:24.008Z,8.40
2017-11-17T11:44:50.899Z,8.50
2017-11-17T11:47:17.820Z,8.50
2017-11-17T11:49:45.484Z,8.80
2017-11-17T11:52:13.151Z,8.90
2017-11-17T11:54:40.819Z,8.90
2017-11-17T11:57:07.734Z,8.80
2017-11-17T11:59:34.644Z,8.90
2017-11-17T12:02:01.565Z,9.00
2017-11-17T12:04:28.469Z,9.00
2017-11-17T12:06:55.414Z,9.10
2017-11-17T12:09:22.304Z,9.10
2017-11-17T12:11:49.219Z,9.10
2017-11-17T12:14:16.917Z,9.30
2017-11-17T12:16:43.826Z,9.30
2017-11-17T12:19:11.493Z,9.40
2017-11-17T12:21:39.347Z,9.40
2017-11-17T12:24:07.010Z,9.90
2017-11-17T12:26:34.691Z,10.10
2017-11-17T12:29:02.535Z,10.00
2017-11-17T12:31:29.443Z,10.20
2017-11-17T12:33:56.331Z,10.10
2017-11-17T12:36:23.999Z,10.10
2017-11-17T12:38:51.662Z,10.00
2017-11-17T12:41:20.346Z,9.80
2017-11-17T12:43:49.227Z,9.80
2017-11-17T12:46:16.907Z,9.50
2017-11-17T12:48:43.806Z,9.50
2017-11-17T12:51:10.694Z,9.60
2017-11-17T12:53:37.630Z,9.90
2017-11-17T12:56:04.545Z,10.20
2017-11-17T12:58:31.512Z,10.60
2017-11-17T13:01:00.187Z,10.30
2017-11-17T13:03:27.094Z,10.30
2017-11-17T13:05:54.002Z,10.00
2017-11-17T13:08:20.917Z,10.10
2017-11-17T13:10:48.782Z,10.00
2017-11-17T13:13:16.478Z,9.60
2017-11-17T13:15:43.371Z,9.60
2017-11-17T13:18:10.275Z,9.60
2017-11-17T13:20:37.159Z,9.50
2017-11-17T13:23:04.976Z,9.50
2017-11-17T13:25:31.863Z,9.50
2017-11-17T13:27:58.797Z,9.50
2017-11-17T13:30:25.700Z,9.40
2017-11-17T13:32:53.562Z,9.30
2017-11-17T13:35:21.403Z,9.30
2017-11-17T13:37:48.314Z,9.20
2017-11-17T13:40:15.212Z,9.20
2017-11-17T13:42:42.129Z,9.20
2017-11-17T13:45:09.028Z,9.10
2017-11-17T13:47:35.942Z,9.10
2017-11-17T13:50:04.820Z,9.00
2017-11-17T13:52:32.499Z,8.80
2017-11-17T13:55:00.326Z,8.90
2017-11-17T13:57:28.035Z,8.80
2017-11-17T13:59:54.959Z,8.80
2017-11-17T14:02:22.623Z,8.70
2017-11-17T14:04:50.316Z,8.70
2017-11-17T14:07:17.222Z,8.70
2017-11-17T14:09:45.145Z,8.90
2017-11-17T14:12:12.123Z,8.90
2017-11-17T14:14:39.027Z,9.00
2017-11-17T14:17:05.935Z,9.00
2017-11-17T14:19:32.841Z,9.00
2017-11-17T14:21:59.759Z,8.90
2017-11-17T14:24:28.613Z,9.00
2017-11-17T14:26:55.547Z,9.00
2017-11-17T14:29:23.223Z,9.00
2017-11-17T14:31:50.147Z,9.00
2017-11-17T14:34:18.603Z,8.70
2017-11-17T14:36:45.509Z,8.70
2017-11-17T14:39:12.424Z,8.60
2017-11-17T14:41:40.108Z,8.40
2017-11-17T14:44:07.008Z,8.40
2017-11-17T14:46:34.916Z,8.30
2017-11-17T14:49:02.751Z,8.30
2017-11-17T14:51:30.439Z,8.30
2017-11-17T14:53:59.303Z,8.30
2017-11-17T14:56:26.993Z,8.20
2017-11-17T14:58:53.908Z,8.20
2017-11-17T15:01:21.593Z,8.10
2017-11-17T15:03:48.483Z,8.10
2017-11-17T15:06:15.387Z,8.10
2017-11-17T15:08:43.339Z,8.10
2017-11-17T15:11:11.019Z,7.90
2017-11-17T15:13:38.849Z,7.90
2017-11-17T15:16:06.746Z,7.80
2017-11-17T15:18:33.668Z,7.70
2017-11-17T15:21:01.361Z,7.70
2017-11-17T15:23:29.203Z,7.70
2017-11-17T15:25:56.889Z,7.50
2017-11-17T15:28:23.789Z,7.50
2017-11-17T15:30:52.694Z,7.40
2017-11-17T15:33:20.411Z,7.40
2017-11-17T15:35:47.310Z,7.70
2017-11-17T15:38:14.972Z,7.30
2017-11-17T15:40:42.662Z,7.20
2017-11-17T15:43:10.496Z,7.20
2017-11-17T15:45:38.331Z,7.20
2017-11-17T15:48:05.281Z,7.20
2017-11-17T15:50:33.079Z,7.20
2017-11-17T15:53:03.032Z,7.10
2017-11-17T15:55:29.972Z,7.00
2017-11-17T15:57:57.878Z,6.90
2017-11-17T16:00:24.881Z,6.90
2017-11-17T16:02:51.803Z,7.00
2017-11-17T16:05:18.712Z,6.80
2017-11-17T16:07:45.603Z,6.90
2017-11-17T16:10:12.517Z,6.90
2017-11-17T16:12:40.320Z,6.80
2017-11-17T16:15:08.262Z,6.70
2017-11-17T16:17:35.171Z,6.80
2017-11-17T16:20:02.102Z,6.80
2017-11-17T16:22:33.284Z,6.80
2017-11-17T16:25:03.610Z,6.80
2017-11-17T16:27:32.492Z,6.90
2017-11-17T16:30:01.871Z,6.80
2017-11-17T16:32:28.810Z,6.70
2017-11-17T16:34:57.740Z,6.90
2017-11-17T16:37:25.439Z,6.90
2017-11-17T16:39:53.249Z,6.80
2017-11-17T16:42:20.194Z,6.90
2017-11-17T16:44:47.099Z,7.00
2017-11-17T16:47:14.016Z,7.00
2017-11-17T16:49:40.927Z,7.00
2017-11-17T16:52:13.147Z,7.10
2017-11-17T16:54:42.282Z,7.10
2017-11-17T16:57:09.196Z,7.10
2017-11-17T16:59:36.109Z,7.00
2017-11-17T17:02:03.023Z,6.90
2017-11-17T17:04:29.935Z,6.80
2017-11-17T17:06:56.835Z,6.80
2017-11-17T17:09:24.521Z,6.80
2017-11-17T17:11:52.466Z,6.90
2017-11-17T17:14:20.120Z,6.60
2017-11-17T17:16:47.814Z,6.60
2017-11-17T17:19:14.705Z,6.60
2017-11-17T17:21:41.628Z,6.60
2017-11-17T17:24:08.532Z,6.60
2017-11-17T17:26:35.441Z,6.60
2017-11-17T17:29:02.345Z,6.70
2017-11-17T17:31:29.264Z,6.70
2017-11-17T17:33:58.118Z,6.70
2017-11-17T17:36:25.041Z,6.80
2017-11-17T17:38:51.943Z,6.80
2017-11-17T17:41:18.850Z,6.90
2017-11-17T17:43:45.780Z,6.80
2017-11-17T17:46:12.680Z,6.90
2017-11-17T17:48:39.582Z,6.90
2017-11-17T17:51:06.479Z,6.80
2017-11-17T17:53:33.383Z,6.70
2017-11-17T17:56:01.053Z,6.60
2017-11-17T17:58:28.679Z,6.60
2017-11-17T18:00:55.587Z,6.60
2017-11-17T18:03:22.487Z,6.60
2017-11-17T18:05:50.184Z,6.60
2017-11-17T18:08:17.088Z,6.50
2017-11-17T18:10:43.992Z,6.50
2017-11-17T18:13:13.109Z,6.50
2017-11-17T18:15:40.003Z,6.50
2017-11-17T18:18:06.900Z,6.60
2017-11-17T18:20:33.817Z,6.70
2017-11-17T18:23:02.631Z,6.60
2017-11-17T18:25:29.597Z,6.50
2017-11-17T18:27:56.466Z,6.60
2017-11-17T18:30:23.498Z,6.70
2017-11-17T18:32:52.382Z,6.60
2017-11-17T18:35:21.287Z,6.50
2017-11-17T18:37:48.229Z,6.40
2017-11-17T18:40:17.437Z,6.50
2017-11-17T18:42:45.330Z,6.50
2017-11-17T18:45:15.109Z,6.60
2017-11-17T18:47:46.082Z,6.60
2017-11-17T18:50:18.818Z,6.60
2017-11-17T18:52:47.404Z,6.60
2017-11-17T18:55:18.868Z,6.50
2017-11-17T18:57:49.490Z,6.80
2017-11-17T19:00:18.520Z,6.50
2017-11-17T19:02:49.050Z,6.40
2017-11-17T19:05:15.999Z,6.40
2017-11-17T19:07:43.867Z,6.30
2017-11-17T19:10:14.423Z,6.30
2017-11-17T19:12:42.169Z,6.30
2017-11-17T19:15:09.548Z,6.30
2017-11-17T19:17:37.705Z,6.30
2017-11-17T19:20:04.591Z,6.30
2017-11-17T19:22:31.509Z,6.30
2017-11-17T19:25:00.407Z,6.20
2017-11-17T19:27:27.344Z,6.20
2017-11-17T19:30:00.736Z,6.30
2017-11-17T19:32:27.637Z,6.20
2017-11-17T19:34:54.592Z,6.20
2017-11-17T19:37:25.563Z,6.20
2017-11-17T19:39:53.618Z,6.30
2017-11-17T19:42:20.563Z,6.40
2017-11-17T19:44:48.443Z,6.40
2017-11-17T19:47:16.469Z,6.50
2017-11-17T19:49:47.707Z,6.50
2017-11-17T19:52:14.657Z,6.50
2017-11-17T19:54:44.564Z,6.50
2017-11-17T19:57:12.416Z,6.50
2017-11-17T19:59:39.359Z,6.60
2017-11-17T20:02:06.275Z,6.60
2017-11-17T20:04:33.163Z,6.60
2017-11-17T20:07:00.113Z,6.50
2017-11-17T20:09:29.006Z,6.50
2017-11-17T20:11:55.930Z,6.40
2017-11-17T20:14:22.820Z,6.40
2017-11-17T20:16:49.748Z,6.30
2017-11-17T20:19:16.668Z,6.30
2017-11-17T20:21:45.500Z,6.30
2017-11-17T20:24:12.457Z,6.30
2017-11-17T20:26:39.362Z,6.30
2017-11-17T20:29:07.271Z,6.50
2017-11-17T20:31:38.675Z,6.50
2017-11-17T20:34:05.583Z,6.60
2017-11-17T20:36:34.475Z,6.60
2017-11-17T20:39:01.475Z,6.60
2017-11-17T20:41:28.380Z,6.60
2017-11-17T20:44:06.227Z,6.40
2017-11-17T20:46:33.221Z,6.40
2017-11-17T20:49:02.006Z,6.30
2017-11-17T20:51:31.731Z,6.20
2017-11-17T20:54:02.190Z,6.30
2017-11-17T20:56:30.079Z,6.10
2017-11-17T20:58:56.971Z,6.10
2017-11-17T21:01:25.874Z,6.00
2017-11-17T21:03:53.001Z,6.00
2017-11-17T21:06:20.007Z,5.90
2017-11-17T21:08:49.152Z,5.90
2017-11-17T21:11:17.637Z,5.90
2017-11-17T21:13:46.522Z,5.90
2017-11-17T21:16:13.452Z,5.90
2017-11-17T21:18:40.512Z,5.90
2017-11-17T21:21:07.566Z,5.90
2017-11-17T21:23:34.502Z,6.00
2017-11-17T21:26:02.379Z,5.90
2017-11-17T21:28:29.267Z,6.00
2017-11-17T21:31:02.048Z,5.90
2017-11-17T21:33:28.958Z,6.00
2017-11-17T21:35:55.863Z,6.00
2017-11-17T21:38:23.749Z,6.00
2017-11-17T21:40:55.521Z,5.90
2017-11-17T21:43:22.434Z,6.00
2017-11-17T21:45:50.108Z,5.90
2017-11-17T21:48:18.093Z,6.00
2017-11-17T21:50:49.303Z,5.90
2017-11-17T21:53:16.998Z,6.00
2017-11-17T21:55:45.855Z,6.00
2017-11-17T21:58:13.707Z,6.00
2017-11-17T22:00:40.619Z,6.10
2017-11-17T22:03:07.507Z,5.90
2017-11-17T22:05:37.105Z,5.80
2017-11-17T22:08:05.011Z,5.90
2017-11-17T22:10:32.864Z,5.60
2017-11-17T22:13:00.693Z,5.60
2017-11-17T22:15:27.611Z,5.50
2017-11-17T22:17:54.559Z,5.50
2017-11-17T22:20:21.480Z,5.50
2017-11-17T22:22:48.400Z,5.50
2017-11-17T22:25:16.424Z,5.40
2017-11-17T22:27:48.611Z,5.50
2017-11-17T22:30:15.524Z,5.40
2017-11-17T22:32:45.564Z,5.40
2017-11-17T22:35:17.259Z,5.40
2017-11-17T22:37:44.939Z,5.30
2017-11-17T22:40:12.772Z,5.50
2017-11-17T22:42:41.772Z,5.40
2017-11-17T22:45:10.660Z,5.40
2017-11-17T22:47:38.351Z,5.40
2017-11-17T22:50:05.279Z,5.40
2017-11-17T22:52:32.180Z,5.40
2017-11-17T22:54:59.597Z,5.50
2017-11-17T22:57:26.572Z,5.60
2017-11-17T22:59:56.770Z,5.80
2017-11-17T23:02:25.577Z,5.90
2017-11-17T23:04:52.496Z,5.90
2017-11-17T23:07:19.422Z,5.90
2017-11-17T23:09:47.128Z,5.80
2017-11-17T23:12:14.060Z,5.90
2017-11-17T23:14:40.972Z,5.70
2017-11-17T23:17:07.872Z,5.80
2017-11-17T23:19:34.785Z,5.70
2017-11-17T23:22:02.696Z,5.70
2017-11-17T23:24:29.611Z,5.60
2017-11-17T23:26:57.531Z,5.50
2017-11-17T23:29:25.203Z,5.50
2017-11-17T23:31:52.126Z,5.50
2017-11-17T23:34:19.808Z,5.50
2017-11-17T23:36:51.020Z,5.80
2017-11-17T23:39:19.839Z,5.50
2017-11-17T23:41:49.900Z,5.40
2017-11-17T23:44:18.733Z,5.40
2017-11-17T23:46:48.340Z,5.40
2017-11-17T23:49:16.022Z,5.40
2017-11-17T23:51:43.099Z,5.30
2017-11-17T23:54:12.837Z,5.40
2017-11-17T23:56:40.681Z,5.50
2017-11-17T23:59:07.603Z,5.60
